sensor_id;sensor_type;location;lat;lon;timestamp;P1;durP1;ratioP1;P2;durP2;ratioP2
16352;SDS011;8286;51.274;9.542;2023-12-07T00:01:05;17.47;;;9.40;;
16352;SDS011;8286;51.274;9.542;2023-12-07T00:03:32;17.70;;;9.90;;
16352;SDS011;8286;51.274;9.542;2023-12-07T00:05:58;21.77;;;9.17;;
16352;SDS011;8286;51.274;9.542;2023-12-07T00:08:25;17.63;;;9.13;;
16352;SDS011;8286;51.274;9.542;2023-12-07T00:10:51;15.93;;;9.23;;
16352;SDS011;8286;51.274;9.542;2023-12-07T00:13:18;19.67;;;10.53;;
16352;SDS011;8286;51.274;9.542;2023-12-07T00:15:44;20.10;;;10.27;;
16352;SDS011;8286;51.274;9.542;2023-12-07T00:18:12;17.50;;;10.13;;
16352;SDS011;8286;51.274;9.542;2023-12-07T00:20:39;16.87;;;9.20;;
16352;SDS011;8286;51.274;9.542;2023-12-07T00:23:05;19.90;;;9.73;;
16352;SDS011;8286;51.274;9.542;2023-12-07T00:25:32;16.83;;;9.00;;
16352;SDS011;8286;51.274;9.542;2023-12-07T00:27:59;14.87;;;9.00;;
16352;SDS011;8286;51.274;9.542;2023-12-07T00:30:25;21.40;;;10.10;;
16352;SDS011;8286;51.274;9.542;2023-12-07T00:32:52;19.40;;;10.07;;
16352;SDS011;8286;51.274;9.542;2023-12-07T00:35:20;16.60;;;9.77;;
16352;SDS011;8286;51.274;9.542;2023-12-07T00:37:47;16.37;;;9.50;;
16352;SDS011;8286;51.274;9.542;2023-12-07T00:40:14;21.03;;;9.93;;
16352;SDS011;8286;51.274;9.542;2023-12-07T00:42:40;18.63;;;10.07;;
16352;SDS011;8286;51.274;9.542;2023-12-07T00:45:08;17.93;;;9.80;;
16352;SDS011;8286;51.274;9.542;2023-12-07T00:47:35;18.80;;;10.13;;
16352;SDS011;8286;51.274;9.542;2023-12-07T00:50:01;18.10;;;10.73;;
16352;SDS011;8286;51.274;9.542;2023-12-07T00:52:29;19.73;;;11.43;;
16352;SDS011;8286;51.274;9.542;2023-12-07T00:54:56;18.23;;;10.30;;
16352;SDS011;8286;51.274;9.542;2023-12-07T00:57:22;21.30;;;11.10;;
16352;SDS011;8286;51.274;9.542;2023-12-07T00:59:49;19.70;;;10.43;;
16352;SDS011;8286;51.274;9.542;2023-12-07T01:02:15;22.97;;;11.57;;
16352;SDS011;8286;51.274;9.542;2023-12-07T01:04:42;21.10;;;11.60;;
16352;SDS011;8286;51.274;9.542;2023-12-07T01:07:09;24.67;;;11.87;;
16352;SDS011;8286;51.274;9.542;2023-12-07T01:09:36;22.07;;;11.80;;
16352;SDS011;8286;51.274;9.542;2023-12-07T01:12:03;21.40;;;11.73;;
16352;SDS011;8286;51.274;9.542;2023-12-07T01:14:30;26.67;;;11.43;;
16352;SDS011;8286;51.274;9.542;2023-12-07T01:16:57;23.17;;;12.83;;
16352;SDS011;8286;51.274;9.542;2023-12-07T01:19:23;24.70;;;12.33;;
16352;SDS011;8286;51.274;9.542;2023-12-07T01:21:50;23.60;;;11.87;;
16352;SDS011;8286;51.274;9.542;2023-12-07T01:24:17;25.37;;;12.83;;
16352;SDS011;8286;51.274;9.542;2023-12-07T01:26:44;21.33;;;11.27;;
16352;SDS011;8286;51.274;9.542;2023-12-07T01:29:11;25.77;;;11.53;;
16352;SDS011;8286;51.274;9.542;2023-12-07T01:31:39;21.10;;;11.40;;
16352;SDS011;8286;51.274;9.542;2023-12-07T01:34:05;23.83;;;12.77;;
16352;SDS011;8286;51.274;9.542;2023-12-07T01:36:32;23.27;;;12.33;;
16352;SDS011;8286;51.274;9.542;2023-12-07T01:38:58;22.23;;;11.47;;
16352;SDS011;8286;51.274;9.542;2023-12-07T01:41:25;30.60;;;13.37;;
16352;SDS011;8286;51.274;9.542;2023-12-07T01:43:53;20.13;;;11.33;;
16352;SDS011;8286;51.274;9.542;2023-12-07T01:46:19;26.70;;;13.07;;
16352;SDS011;8286;51.274;9.542;2023-12-07T01:48:46;26.17;;;12.97;;
16352;SDS011;8286;51.274;9.542;2023-12-07T01:51:14;19.73;;;10.73;;
16352;SDS011;8286;51.274;9.542;2023-12-07T01:53:41;19.43;;;10.97;;
16352;SDS011;8286;51.274;9.542;2023-12-07T01:56:08;26.77;;;12.27;;
16352;SDS011;8286;51.274;9.542;2023-12-07T01:58:35;25.53;;;11.70;;
16352;SDS011;8286;51.274;9.542;2023-12-07T02:01:03;24.33;;;11.93;;
16352;SDS011;8286;51.274;9.542;2023-12-07T02:03:31;27.03;;;13.00;;
16352;SDS011;8286;51.274;9.542;2023-12-07T02:05:58;24.90;;;13.00;;
16352;SDS011;8286;51.274;9.542;2023-12-07T02:08:24;21.50;;;12.27;;
16352;SDS011;8286;51.274;9.542;2023-12-07T02:10:51;22.90;;;11.87;;
16352;SDS011;8286;51.274;9.542;2023-12-07T02:13:18;22.20;;;12.33;;
16352;SDS011;8286;51.274;9.542;2023-12-07T02:15:45;20.73;;;11.67;;
16352;SDS011;8286;51.274;9.542;2023-12-07T02:18:14;21.43;;;11.07;;
16352;SDS011;8286;51.274;9.542;2023-12-07T02:20:43;23.47;;;11.67;;
16352;SDS011;8286;51.274;9.542;2023-12-07T02:23:14;22.07;;;11.60;;
16352;SDS011;8286;51.274;9.542;2023-12-07T02:25:44;23.97;;;12.30;;
16352;SDS011;8286;51.274;9.542;2023-12-07T02:28:17;20.60;;;11.87;;
16352;SDS011;8286;51.274;9.542;2023-12-07T02:30:43;22.73;;;11.37;;
16352;SDS011;8286;51.274;9.542;2023-12-07T02:33:10;23.53;;;12.00;;
16352;SDS011;8286;51.274;9.542;2023-12-07T02:35:37;22.83;;;12.17;;
16352;SDS011;8286;51.274;9.542;2023-12-07T02:38:04;22.07;;;11.73;;
16352;SDS011;8286;51.274;9.542;2023-12-07T02:40:31;19.43;;;11.37;;
16352;SDS011;8286;51.274;9.542;2023-12-07T02:42:59;21.63;;;11.40;;
16352;SDS011;8286;51.274;9.542;2023-12-07T02:45:27;21.33;;;11.60;;
16352;SDS011;8286;51.274;9.542;2023-12-07T02:47:54;19.60;;;11.97;;
16352;SDS011;8286;51.274;9.542;2023-12-07T02:50:20;26.07;;;12.37;;
16352;SDS011;8286;51.274;9.542;2023-12-07T02:52:47;24.13;;;12.90;;
16352;SDS011;8286;51.274;9.542;2023-12-07T02:55:13;26.07;;;12.20;;
16352;SDS011;8286;51.274;9.542;2023-12-07T02:57:40;19.03;;;11.67;;
16352;SDS011;8286;51.274;9.542;2023-12-07T03:00:07;25.77;;;13.13;;
16352;SDS011;8286;51.274;9.542;2023-12-07T03:02:36;30.60;;;13.30;;
16352;SDS011;8286;51.274;9.542;2023-12-07T03:05:04;27.23;;;14.50;;
16352;SDS011;8286;51.274;9.542;2023-12-07T03:07:32;26.40;;;14.37;;
16352;SDS011;8286;51.274;9.542;2023-12-07T03:09:59;26.20;;;12.80;;
16352;SDS011;8286;51.274;9.542;2023-12-07T03:12:25;26.77;;;13.47;;
16352;SDS011;8286;51.274;9.542;2023-12-07T03:14:52;26.80;;;13.20;;
16352;SDS011;8286;51.274;9.542;2023-12-07T03:17:18;22.77;;;12.33;;
16352;SDS011;8286;51.274;9.542;2023-12-07T03:19:46;22.20;;;11.03;;
16352;SDS011;8286;51.274;9.542;2023-12-07T03:22:13;23.03;;;12.07;;
16352;SDS011;8286;51.274;9.542;2023-12-07T03:24:40;20.70;;;11.23;;
16352;SDS011;8286;51.274;9.542;2023-12-07T03:27:06;21.23;;;11.73;;
16352;SDS011;8286;51.274;9.542;2023-12-07T03:29:33;24.87;;;12.63;;
16352;SDS011;8286;51.274;9.542;2023-12-07T03:31:59;28.07;;;13.37;;
16352;SDS011;8286;51.274;9.542;2023-12-07T03:34:26;22.13;;;11.63;;
16352;SDS011;8286;51.274;9.542;2023-12-07T03:36:54;21.23;;;12.37;;
16352;SDS011;8286;51.274;9.542;2023-12-07T03:39:20;24.77;;;12.53;;
16352;SDS011;8286;51.274;9.542;2023-12-07T03:41:48;26.13;;;12.60;;
16352;SDS011;8286;51.274;9.542;2023-12-07T03:44:14;25.77;;;12.17;;
16352;SDS011;8286;51.274;9.542;2023-12-07T03:46:41;25.03;;;13.67;;
16352;SDS011;8286;51.274;9.542;2023-12-07T03:49:07;32.10;;;13.57;;
16352;SDS011;8286;51.274;9.542;2023-12-07T03:51:34;23.63;;;12.50;;
16352;SDS011;8286;51.274;9.542;2023-12-07T03:54:03;30.33;;;13.53;;
16352;SDS011;8286;51.274;9.542;2023-12-07T03:56:30;22.53;;;12.10;;
16352;SDS011;8286;51.274;9.542;2023-12-07T03:58:58;25.27;;;12.80;;
16352;SDS011;8286;51.274;9.542;2023-12-07T04:01:26;24.47;;;13.37;;
16352;SDS011;8286;51.274;9.542;2023-12-07T04:03:53;23.03;;;12.60;;
16352;SDS011;8286;51.274;9.542;2023-12-07T04:06:20;23.53;;;12.10;;
16352;SDS011;8286;51.274;9.542;2023-12-07T04:08:47;26.63;;;12.43;;
16352;SDS011;8286;51.274;9.542;2023-12-07T04:11:14;27.30;;;13.57;;
16352;SDS011;8286;51.274;9.542;2023-12-07T04:13:41;22.00;;;11.83;;
16352;SDS011;8286;51.274;9.542;2023-12-07T04:16:08;22.30;;;12.43;;
16352;SDS011;8286;51.274;9.542;2023-12-07T04:18:35;26.87;;;13.23;;
16352;SDS011;8286;51.274;9.542;2023-12-07T04:21:02;24.43;;;12.23;;
16352;SDS011;8286;51.274;9.542;2023-12-07T04:23:30;23.70;;;12.33;;
16352;SDS011;8286;51.274;9.542;2023-12-07T04:25:57;23.50;;;12.60;;
16352;SDS011;8286;51.274;9.542;2023-12-07T04:28:25;22.93;;;12.57;;
16352;SDS011;8286;51.274;9.542;2023-12-07T04:30:51;30.07;;;13.53;;
16352;SDS011;8286;51.274;9.542;2023-12-07T04:33:18;26.00;;;13.07;;
16352;SDS011;8286;51.274;9.542;2023-12-07T04:35:45;25.60;;;12.13;;
16352;SDS011;8286;51.274;9.542;2023-12-07T04:38:12;20.60;;;11.40;;
16352;SDS011;8286;51.274;9.542;2023-12-07T04:40:39;20.93;;;12.67;;
16352;SDS011;8286;51.274;9.542;2023-12-07T04:43:06;24.73;;;12.37;;
16352;SDS011;8286;51.274;9.542;2023-12-07T04:45:34;22.80;;;11.77;;
16352;SDS011;8286;51.274;9.542;2023-12-07T04:48:01;23.93;;;11.93;;
16352;SDS011;8286;51.274;9.542;2023-12-07T04:50:28;27.27;;;13.70;;
16352;SDS011;8286;51.274;9.542;2023-12-07T04:52:55;21.77;;;11.73;;
16352;SDS011;8286;51.274;9.542;2023-12-07T04:55:22;22.33;;;13.00;;
16352;SDS011;8286;51.274;9.542;2023-12-07T04:57:48;25.83;;;12.80;;
16352;SDS011;8286;51.274;9.542;2023-12-07T05:00:15;25.23;;;13.03;;
16352;SDS011;8286;51.274;9.542;2023-12-07T05:02:44;24.27;;;11.90;;
16352;SDS011;8286;51.274;9.542;2023-12-07T05:05:10;23.33;;;12.50;;
16352;SDS011;8286;51.274;9.542;2023-12-07T05:07:37;23.80;;;12.03;;
16352;SDS011;8286;51.274;9.542;2023-12-07T05:10:03;22.13;;;11.90;;
16352;SDS011;8286;51.274;9.542;2023-12-07T05:12:31;29.40;;;12.57;;
16352;SDS011;8286;51.274;9.542;2023-12-07T05:14:57;27.90;;;14.03;;
16352;SDS011;8286;51.274;9.542;2023-12-07T05:17:24;29.37;;;13.80;;
16352;SDS011;8286;51.274;9.542;2023-12-07T05:19:52;26.37;;;11.97;;
16352;SDS011;8286;51.274;9.542;2023-12-07T05:22:18;24.73;;;12.40;;
16352;SDS011;8286;51.274;9.542;2023-12-07T05:24:46;26.40;;;12.50;;
16352;SDS011;8286;51.274;9.542;2023-12-07T05:27:13;25.03;;;12.83;;
16352;SDS011;8286;51.274;9.542;2023-12-07T05:29:40;27.47;;;13.40;;
16352;SDS011;8286;51.274;9.542;2023-12-07T05:32:06;27.73;;;12.30;;
16352;SDS011;8286;51.274;9.542;2023-12-07T05:34:33;25.63;;;11.70;;
16352;SDS011;8286;51.274;9.542;2023-12-07T05:37:01;28.17;;;12.63;;
16352;SDS011;8286;51.274;9.542;2023-12-07T05:39:29;26.03;;;12.83;;
16352;SDS011;8286;51.274;9.542;2023-12-07T05:41:55;30.50;;;13.60;;
16352;SDS011;8286;51.274;9.542;2023-12-07T05:44:22;21.87;;;11.70;;
16352;SDS011;8286;51.274;9.542;2023-12-07T05:46:48;25.07;;;11.87;;
16352;SDS011;8286;51.274;9.542;2023-12-07T05:49:15;26.60;;;13.23;;
16352;SDS011;8286;51.274;9.542;2023-12-07T05:51:42;23.20;;;12.10;;
16352;SDS011;8286;51.274;9.542;2023-12-07T05:54:10;22.63;;;11.10;;
16352;SDS011;8286;51.274;9.542;2023-12-07T05:56:36;23.27;;;12.13;;
16352;SDS011;8286;51.274;9.542;2023-12-07T05:59:03;24.73;;;11.90;;
16352;SDS011;8286;51.274;9.542;2023-12-07T06:01:29;23.53;;;11.77;;
16352;SDS011;8286;51.274;9.542;2023-12-07T06:03:57;21.57;;;11.37;;
16352;SDS011;8286;51.274;9.542;2023-12-07T06:06:23;22.47;;;12.23;;
16352;SDS011;8286;51.274;9.542;2023-12-07T06:08:50;24.07;;;12.63;;
16352;SDS011;8286;51.274;9.542;2023-12-07T06:11:17;23.57;;;11.27;;
16352;SDS011;8286;51.274;9.542;2023-12-07T06:13:44;24.67;;;11.50;;
16352;SDS011;8286;51.274;9.542;2023-12-07T06:16:13;28.13;;;13.97;;
16352;SDS011;8286;51.274;9.542;2023-12-07T06:18:42;22.37;;;11.53;;
16352;SDS011;8286;51.274;9.542;2023-12-07T06:21:08;21.17;;;11.67;;
16352;SDS011;8286;51.274;9.542;2023-12-07T06:23:35;26.53;;;13.57;;
16352;SDS011;8286;51.274;9.542;2023-12-07T06:26:01;25.17;;;13.67;;
16352;SDS011;8286;51.274;9.542;2023-12-07T06:28:31;20.67;;;12.30;;
16352;SDS011;8286;51.274;9.542;2023-12-07T06:31:01;25.67;;;12.87;;
16352;SDS011;8286;51.274;9.542;2023-12-07T06:33:31;32.17;;;16.20;;
16352;SDS011;8286;51.274;9.542;2023-12-07T06:35:57;28.60;;;14.43;;
16352;SDS011;8286;51.274;9.542;2023-12-07T06:38:24;27.27;;;14.00;;
16352;SDS011;8286;51.274;9.542;2023-12-07T06:40:50;28.90;;;14.07;;
16352;SDS011;8286;51.274;9.542;2023-12-07T06:43:17;25.00;;;12.80;;
16352;SDS011;8286;51.274;9.542;2023-12-07T06:45:44;25.53;;;12.43;;
16352;SDS011;8286;51.274;9.542;2023-12-07T06:48:11;23.23;;;12.30;;
16352;SDS011;8286;51.274;9.542;2023-12-07T06:50:38;22.07;;;11.83;;
16352;SDS011;8286;51.274;9.542;2023-12-07T06:53:05;23.67;;;12.97;;
16352;SDS011;8286;51.274;9.542;2023-12-07T06:55:32;21.47;;;12.10;;
16352;SDS011;8286;51.274;9.542;2023-12-07T06:57:58;25.13;;;12.60;;
16352;SDS011;8286;51.274;9.542;2023-12-07T07:00:25;22.20;;;12.43;;
16352;SDS011;8286;51.274;9.542;2023-12-07T07:02:53;21.83;;;11.97;;
16352;SDS011;8286;51.274;9.542;2023-12-07T07:05:19;23.70;;;12.73;;
16352;SDS011;8286;51.274;9.542;2023-12-07T07:07:46;20.87;;;12.23;;
16352;SDS011;8286;51.274;9.542;2023-12-07T07:10:12;23.57;;;12.67;;
16352;SDS011;8286;51.274;9.542;2023-12-07T07:12:39;26.70;;;12.63;;
16352;SDS011;8286;51.274;9.542;2023-12-07T07:15:06;26.43;;;13.10;;
16352;SDS011;8286;51.274;9.542;2023-12-07T07:17:33;22.80;;;12.03;;
16352;SDS011;8286;51.274;9.542;2023-12-07T07:20:01;23.20;;;12.53;;
16352;SDS011;8286;51.274;9.542;2023-12-07T07:22:28;27.47;;;14.20;;
16352;SDS011;8286;51.274;9.542;2023-12-07T07:24:54;23.77;;;12.67;;
16352;SDS011;8286;51.274;9.542;2023-12-07T07:27:21;24.07;;;12.43;;
16352;SDS011;8286;51.274;9.542;2023-12-07T07:29:47;23.37;;;11.97;;
16352;SDS011;8286;51.274;9.542;2023-12-07T07:32:14;29.13;;;13.17;;
16352;SDS011;8286;51.274;9.542;2023-12-07T07:34:41;24.93;;;12.63;;
16352;SDS011;8286;51.274;9.542;2023-12-07T07:37:09;24.33;;;13.00;;
16352;SDS011;8286;51.274;9.542;2023-12-07T07:39:35;27.80;;;12.00;;
16352;SDS011;8286;51.274;9.542;2023-12-07T07:42:02;31.03;;;14.00;;
16352;SDS011;8286;51.274;9.542;2023-12-07T07:44:29;27.07;;;15.60;;
16352;SDS011;8286;51.274;9.542;2023-12-07T07:46:56;29.73;;;15.83;;
16352;SDS011;8286;51.274;9.542;2023-12-07T07:49:23;24.83;;;13.00;;
16352;SDS011;8286;51.274;9.542;2023-12-07T07:51:49;20.07;;;10.97;;
16352;SDS011;8286;51.274;9.542;2023-12-07T07:54:17;22.53;;;10.67;;
16352;SDS011;8286;51.274;9.542;2023-12-07T07:56:44;21.70;;;10.90;;
16352;SDS011;8286;51.274;9.542;2023-12-07T07:59:10;24.57;;;11.23;;
16352;SDS011;8286;51.274;9.542;2023-12-07T08:01:37;22.97;;;11.73;;
16352;SDS011;8286;51.274;9.542;2023-12-07T08:04:03;22.83;;;10.97;;
16352;SDS011;8286;51.274;9.542;2023-12-07T08:06:30;20.73;;;10.80;;
16352;SDS011;8286;51.274;9.542;2023-12-07T08:08:56;23.07;;;11.97;;
16352;SDS011;8286;51.274;9.542;2023-12-07T08:11:24;24.17;;;11.97;;
16352;SDS011;8286;51.274;9.542;2023-12-07T08:13:51;20.23;;;11.80;;
16352;SDS011;8286;51.274;9.542;2023-12-07T08:16:17;21.17;;;11.63;;
16352;SDS011;8286;51.274;9.542;2023-12-07T08:18:44;21.03;;;11.13;;
16352;SDS011;8286;51.274;9.542;2023-12-07T08:21:18;21.30;;;11.13;;
16352;SDS011;8286;51.274;9.542;2023-12-07T08:23:44;21.97;;;10.83;;
16352;SDS011;8286;51.274;9.542;2023-12-07T08:26:11;26.63;;;12.00;;
16352;SDS011;8286;51.274;9.542;2023-12-07T08:28:40;19.87;;;11.07;;
16352;SDS011;8286;51.274;9.542;2023-12-07T08:31:07;21.47;;;10.10;;
16352;SDS011;8286;51.274;9.542;2023-12-07T08:33:33;23.10;;;10.90;;
16352;SDS011;8286;51.274;9.542;2023-12-07T08:36:00;20.30;;;9.73;;
16352;SDS011;8286;51.274;9.542;2023-12-07T08:38:27;19.63;;;10.13;;
16352;SDS011;8286;51.274;9.542;2023-12-07T08:40:53;20.83;;;9.73;;
16352;SDS011;8286;51.274;9.542;2023-12-07T08:43:21;19.57;;;9.53;;
16352;SDS011;8286;51.274;9.542;2023-12-07T08:45:49;20.37;;;9.40;;
16352;SDS011;8286;51.274;9.542;2023-12-07T08:48:17;20.47;;;9.67;;
16352;SDS011;8286;51.274;9.542;2023-12-07T08:50:43;21.27;;;9.63;;
16352;SDS011;8286;51.274;9.542;2023-12-07T08:53:10;18.20;;;8.93;;
16352;SDS011;8286;51.274;9.542;2023-12-07T08:55:36;14.03;;;8.37;;
16352;SDS011;8286;51.274;9.542;2023-12-07T08:58:03;15.53;;;8.57;;
16352;SDS011;8286;51.274;9.542;2023-12-07T09:00:30;16.60;;;9.27;;
16352;SDS011;8286;51.274;9.542;2023-12-07T09:02:58;14.07;;;8.40;;
16352;SDS011;8286;51.274;9.542;2023-12-07T09:05:25;12.63;;;7.70;;
16352;SDS011;8286;51.274;9.542;2023-12-07T09:07:52;14.53;;;8.80;;
16352;SDS011;8286;51.274;9.542;2023-12-07T09:10:19;12.20;;;7.63;;
16352;SDS011;8286;51.274;9.542;2023-12-07T09:12:45;16.67;;;7.27;;
16352;SDS011;8286;51.274;9.542;2023-12-07T09:15:12;15.63;;;8.07;;
16352;SDS011;8286;51.274;9.542;2023-12-07T09:17:39;14.60;;;7.97;;
16352;SDS011;8286;51.274;9.542;2023-12-07T09:20:07;14.17;;;8.03;;
16352;SDS011;8286;51.274;9.542;2023-12-07T09:22:37;16.87;;;9.33;;
16352;SDS011;8286;51.274;9.542;2023-12-07T09:25:04;13.73;;;7.27;;
16352;SDS011;8286;51.274;9.542;2023-12-07T09:27:32;11.10;;;6.93;;
16352;SDS011;8286;51.274;9.542;2023-12-07T09:30:00;11.23;;;6.97;;
16352;SDS011;8286;51.274;9.542;2023-12-07T09:32:26;12.13;;;6.77;;
16352;SDS011;8286;51.274;9.542;2023-12-07T09:34:53;12.77;;;7.63;;
16352;SDS011;8286;51.274;9.542;2023-12-07T09:37:21;13.90;;;7.43;;
16352;SDS011;8286;51.274;9.542;2023-12-07T09:39:47;13.97;;;7.57;;
16352;SDS011;8286;51.274;9.542;2023-12-07T09:42:14;15.13;;;7.67;;
16352;SDS011;8286;51.274;9.542;2023-12-07T09:44:40;11.03;;;7.10;;
16352;SDS011;8286;51.274;9.542;2023-12-07T09:47:07;17.03;;;7.33;;
16352;SDS011;8286;51.274;9.542;2023-12-07T09:49:34;10.33;;;5.93;;
16352;SDS011;8286;51.274;9.542;2023-12-07T09:52:00;11.80;;;5.90;;
16352;SDS011;8286;51.274;9.542;2023-12-07T09:54:30;11.87;;;6.87;;
16352;SDS011;8286;51.274;9.542;2023-12-07T09:56:57;11.03;;;6.83;;
16352;SDS011;8286;51.274;9.542;2023-12-07T09:59:24;11.03;;;6.67;;
16352;SDS011;8286;51.274;9.542;2023-12-07T10:01:50;11.00;;;6.73;;
16352;SDS011;8286;51.274;9.542;2023-12-07T10:04:18;11.73;;;7.20;;
16352;SDS011;8286;51.274;9.542;2023-12-07T10:06:47;10.87;;;6.67;;
16352;SDS011;8286;51.274;9.542;2023-12-07T10:09:14;13.37;;;7.00;;
16352;SDS011;8286;51.274;9.542;2023-12-07T10:11:42;9.73;;;7.07;;
16352;SDS011;8286;51.274;9.542;2023-12-07T10:14:09;11.37;;;6.53;;
16352;SDS011;8286;51.274;9.542;2023-12-07T10:16:36;12.87;;;6.80;;
16352;SDS011;8286;51.274;9.542;2023-12-07T10:19:12;14.27;;;7.27;;
16352;SDS011;8286;51.274;9.542;2023-12-07T10:21:39;13.10;;;7.23;;
16352;SDS011;8286;51.274;9.542;2023-12-07T10:24:06;15.80;;;8.17;;
16352;SDS011;8286;51.274;9.542;2023-12-07T10:26:33;14.03;;;7.47;;
16352;SDS011;8286;51.274;9.542;2023-12-07T10:29:02;14.03;;;8.10;;
16352;SDS011;8286;51.274;9.542;2023-12-07T10:31:30;15.70;;;8.47;;
16352;SDS011;8286;51.274;9.542;2023-12-07T10:33:57;13.77;;;8.57;;
16352;SDS011;8286;51.274;9.542;2023-12-07T10:36:24;16.57;;;9.07;;
16352;SDS011;8286;51.274;9.542;2023-12-07T10:38:51;16.00;;;8.07;;
16352;SDS011;8286;51.274;9.542;2023-12-07T10:41:18;15.33;;;8.53;;
16352;SDS011;8286;51.274;9.542;2023-12-07T10:43:48;14.70;;;8.07;;
16352;SDS011;8286;51.274;9.542;2023-12-07T10:46:16;14.00;;;8.60;;
16352;SDS011;8286;51.274;9.542;2023-12-07T10:48:47;14.63;;;8.13;;
16352;SDS011;8286;51.274;9.542;2023-12-07T10:51:15;13.20;;;8.13;;
16352;SDS011;8286;51.274;9.542;2023-12-07T10:53:45;17.70;;;8.60;;
16352;SDS011;8286;51.274;9.542;2023-12-07T10:56:13;12.27;;;7.37;;
16352;SDS011;8286;51.274;9.542;2023-12-07T10:58:42;12.87;;;6.87;;
16352;SDS011;8286;51.274;9.542;2023-12-07T11:01:09;14.57;;;7.90;;
16352;SDS011;8286;51.274;9.542;2023-12-07T11:03:40;12.07;;;6.87;;
16352;SDS011;8286;51.274;9.542;2023-12-07T11:06:08;13.03;;;7.57;;
16352;SDS011;8286;51.274;9.542;2023-12-07T11:08:36;11.67;;;6.87;;
16352;SDS011;8286;51.274;9.542;2023-12-07T11:11:06;10.60;;;6.53;;
16352;SDS011;8286;51.274;9.542;2023-12-07T11:13:38;10.87;;;6.73;;
16352;SDS011;8286;51.274;9.542;2023-12-07T11:16:04;11.17;;;6.97;;
16352;SDS011;8286;51.274;9.542;2023-12-07T11:18:31;11.80;;;7.90;;
16352;SDS011;8286;51.274;9.542;2023-12-07T11:20:59;12.70;;;8.10;;
16352;SDS011;8286;51.274;9.542;2023-12-07T11:23:26;15.97;;;8.73;;
16352;SDS011;8286;51.274;9.542;2023-12-07T11:25:53;14.53;;;8.73;;
16352;SDS011;8286;51.274;9.542;2023-12-07T11:28:33;12.67;;;8.80;;
16352;SDS011;8286;51.274;9.542;2023-12-07T11:31:01;14.43;;;8.17;;
16352;SDS011;8286;51.274;9.542;2023-12-07T11:33:28;15.43;;;9.30;;
16352;SDS011;8286;51.274;9.542;2023-12-07T11:36:07;17.30;;;9.77;;
16352;SDS011;8286;51.274;9.542;2023-12-07T11:38:35;16.77;;;9.30;;
16352;SDS011;8286;51.274;9.542;2023-12-07T11:41:02;12.77;;;8.40;;
16352;SDS011;8286;51.274;9.542;2023-12-07T11:43:41;15.10;;;9.00;;
16352;SDS011;8286;51.274;9.542;2023-12-07T11:46:11;13.70;;;9.30;;
16352;SDS011;8286;51.274;9.542;2023-12-07T11:48:39;15.77;;;9.47;;
16352;SDS011;8286;51.274;9.542;2023-12-07T11:51:07;15.83;;;9.30;;
16352;SDS011;8286;51.274;9.542;2023-12-07T11:53:35;16.07;;;8.90;;
16352;SDS011;8286;51.274;9.542;2023-12-07T11:56:02;14.83;;;8.97;;
16352;SDS011;8286;51.274;9.542;2023-12-07T11:58:31;12.23;;;8.43;;
16352;SDS011;8286;51.274;9.542;2023-12-07T12:00:59;16.47;;;8.93;;
16352;SDS011;8286;51.274;9.542;2023-12-07T12:03:26;20.57;;;9.50;;
16352;SDS011;8286;51.274;9.542;2023-12-07T12:05:53;17.37;;;9.87;;
16352;SDS011;8286;51.274;9.542;2023-12-07T12:08:22;17.17;;;9.33;;
16352;SDS011;8286;51.274;9.542;2023-12-07T12:10:49;16.13;;;8.97;;
16352;SDS011;8286;51.274;9.542;2023-12-07T12:13:17;15.63;;;8.67;;
16352;SDS011;8286;51.274;9.542;2023-12-07T12:15:45;18.27;;;9.33;;
16352;SDS011;8286;51.274;9.542;2023-12-07T12:18:12;17.27;;;9.23;;
16352;SDS011;8286;51.274;9.542;2023-12-07T12:20:39;27.37;;;10.30;;
16352;SDS011;8286;51.274;9.542;2023-12-07T12:23:05;20.43;;;10.27;;
16352;SDS011;8286;51.274;9.542;2023-12-07T12:25:33;20.03;;;10.23;;
16352;SDS011;8286;51.274;9.542;2023-12-07T12:28:01;20.00;;;10.20;;
16352;SDS011;8286;51.274;9.542;2023-12-07T12:30:29;19.70;;;8.93;;
16352;SDS011;8286;51.274;9.542;2023-12-07T12:32:56;14.57;;;8.57;;
16352;SDS011;8286;51.274;9.542;2023-12-07T12:35:25;19.37;;;9.50;;
16352;SDS011;8286;51.274;9.542;2023-12-07T12:37:51;18.73;;;9.97;;
16352;SDS011;8286;51.274;9.542;2023-12-07T12:40:21;19.27;;;10.33;;
16352;SDS011;8286;51.274;9.542;2023-12-07T12:42:50;19.33;;;10.50;;
16352;SDS011;8286;51.274;9.542;2023-12-07T12:45:17;14.00;;;8.30;;
16352;SDS011;8286;51.274;9.542;2023-12-07T12:47:45;16.57;;;9.30;;
16352;SDS011;8286;51.274;9.542;2023-12-07T12:50:12;13.93;;;8.23;;
16352;SDS011;8286;51.274;9.542;2023-12-07T12:52:58;16.57;;;9.30;;
16352;SDS011;8286;51.274;9.542;2023-12-07T12:55:25;17.57;;;9.13;;
16352;SDS011;8286;51.274;9.542;2023-12-07T12:57:55;15.63;;;8.57;;
16352;SDS011;8286;51.274;9.542;2023-12-07T13:00:22;13.63;;;7.80;;
16352;SDS011;8286;51.274;9.542;2023-12-07T13:02:49;11.37;;;6.77;;
16352;SDS011;8286;51.274;9.542;2023-12-07T13:05:16;11.80;;;7.07;;
16352;SDS011;8286;51.274;9.542;2023-12-07T13:07:43;12.93;;;7.03;;
16352;SDS011;8286;51.274;9.542;2023-12-07T13:10:10;10.53;;;5.97;;
16352;SDS011;8286;51.274;9.542;2023-12-07T13:12:36;8.90;;;5.47;;
16352;SDS011;8286;51.274;9.542;2023-12-07T13:15:04;7.03;;;5.10;;
16352;SDS011;8286;51.274;9.542;2023-12-07T13:17:31;8.80;;;5.60;;
16352;SDS011;8286;51.274;9.542;2023-12-07T13:19:58;9.20;;;5.30;;
16352;SDS011;8286;51.274;9.542;2023-12-07T13:22:24;10.13;;;6.03;;
16352;SDS011;8286;51.274;9.542;2023-12-07T13:24:51;9.23;;;6.00;;
16352;SDS011;8286;51.274;9.542;2023-12-07T13:27:17;10.17;;;5.83;;
16352;SDS011;8286;51.274;9.542;2023-12-07T13:29:44;8.07;;;5.73;;
16352;SDS011;8286;51.274;9.542;2023-12-07T13:32:12;9.00;;;6.53;;
16352;SDS011;8286;51.274;9.542;2023-12-07T13:34:38;8.90;;;6.17;;
16352;SDS011;8286;51.274;9.542;2023-12-07T13:37:05;9.90;;;6.37;;
16352;SDS011;8286;51.274;9.542;2023-12-07T13:39:32;8.80;;;5.73;;
16352;SDS011;8286;51.274;9.542;2023-12-07T13:41:59;8.30;;;6.10;;
16352;SDS011;8286;51.274;9.542;2023-12-07T13:44:25;8.80;;;5.93;;
16352;SDS011;8286;51.274;9.542;2023-12-07T13:46:52;7.67;;;5.07;;
16352;SDS011;8286;51.274;9.542;2023-12-07T13:49:21;9.40;;;5.50;;
16352;SDS011;8286;51.274;9.542;2023-12-07T13:51:47;7.50;;;5.00;;
16352;SDS011;8286;51.274;9.542;2023-12-07T13:54:14;8.60;;;5.40;;
16352;SDS011;8286;51.274;9.542;2023-12-07T13:56:40;8.70;;;6.50;;
16352;SDS011;8286;51.274;9.542;2023-12-07T13:59:08;5.83;;;4.73;;
16352;SDS011;8286;51.274;9.542;2023-12-07T14:01:37;9.40;;;4.83;;
16352;SDS011;8286;51.274;9.542;2023-12-07T14:04:04;5.73;;;5.10;;
16352;SDS011;8286;51.274;9.542;2023-12-07T14:06:32;7.33;;;4.63;;
16352;SDS011;8286;51.274;9.542;2023-12-07T14:09:00;7.13;;;4.63;;
16352;SDS011;8286;51.274;9.542;2023-12-07T14:11:27;15.10;;;5.90;;
16352;SDS011;8286;51.274;9.542;2023-12-07T14:13:54;11.13;;;5.53;;
16352;SDS011;8286;51.274;9.542;2023-12-07T14:16:20;10.40;;;6.80;;
16352;SDS011;8286;51.274;9.542;2023-12-07T14:18:47;10.60;;;6.30;;
16352;SDS011;8286;51.274;9.542;2023-12-07T14:21:13;13.93;;;7.03;;
16352;SDS011;8286;51.274;9.542;2023-12-07T14:23:46;9.90;;;6.57;;
16352;SDS011;8286;51.274;9.542;2023-12-07T14:26:13;12.10;;;7.33;;
16352;SDS011;8286;51.274;9.542;2023-12-07T14:28:40;13.63;;;6.77;;
16352;SDS011;8286;51.274;9.542;2023-12-07T14:31:07;9.13;;;6.40;;
16352;SDS011;8286;51.274;9.542;2023-12-07T14:33:39;14.73;;;7.30;;
16352;SDS011;8286;51.274;9.542;2023-12-07T14:36:06;11.27;;;7.43;;
16352;SDS011;8286;51.274;9.542;2023-12-07T14:38:36;12.03;;;8.07;;
16352;SDS011;8286;51.274;9.542;2023-12-07T14:41:04;15.57;;;9.47;;